weather.gov     
National Weather Service

Terminal Aerodrome Forecast
NWS Homepage
This page is being discontinued on March 12, 2014.
The same data is available at this site. Please update your bookmarks.
Thank you, and we apologize for the inconvenience.
Please send an email to SR-SRH.Webmaster@noaa.gov with any concerns.


Current Version
Previous Version:    01  02  03  04  05  06  07  08  09  10  11  12  13  14  15  16  17  18  19  20  
[Printable]
326
FTUS41 KCLE 311100
TAFMFD
TAF
KMFD 311125Z 3112/0112 21004KT P6SM OVC045
     FM311400 25006KT 5SM BR VCSH SCT015 OVC025
      TEMPO 3116/3119 4SM -SHRA BR SCT008 OVC012
     FM311900 25010KT 4SM -SHRA BR OVC008
     FM312200 35018G30KT 2SM -SHRA BR OVC008
     FM010900 34015G25KT 1 1/2SM -SN BR OVC006=


U.S. Dept. of Commerce
NOAA National Weather Service
1325 East West Highway
Silver Spring, MD 20910
E-mail: w-nws.webmaster@noaa.gov
Page last modified: May 16, 2007
NATIONAL WEATHER SERVICE: for Safety, for Work, for Fun - FOR LIFE